Time;durP1;ratioP1;P1;durP2;ratioP2;P2;SDS_P1;SDS_P2;PMS_P1;PMS_P2;Temp;Humidity;BMP_temperature;BMP_pressure;BME280_temperature;BME280_humidity;BME280_pressure;Samples;Min_cycle;Max_cycle;Signal;HPM_P1;HPM_P2
2023/03/25 00:01:46;;;;;;;;;;;;;;;10.30;69.05;97260.78;5090285;28;19928;-57
2023/03/25 00:04:16;;;;;;;;;;;;;;;10.13;70.46;97255.38;5092184;28;19930;-60
2023/03/25 00:06:44;;;;;;;;;;;;;;;10.18;70.17;97247.06;5091818;28;19931;-56
2023/03/25 00:09:12;;;;;;;;;;;;;;;10.06;71.18;97241.50;5093748;28;20346;-58
2023/03/25 00:11:42;;;;;;;;;;;;;;;10.06;71.41;97257.78;5094288;28;19924;-57
2023/03/25 00:14:15;;;;;;;;;;;;;;;10.09;71.63;97254.44;5092387;28;19924;-56
2023/03/25 00:16:47;;;;;;;;;;;;;;;9.96;71.98;97250.78;5088886;28;19924;-57
2023/03/25 00:19:16;;;;;;;;;;;;;;;10.04;72.04;97246.44;5091590;28;19924;-57
2023/03/25 00:21:44;;;;;;;;;;;;;;;9.96;71.47;97240.75;5103260;28;19928;-57
2023/03/25 00:24:16;;;;;;;;;;;;;;;10.01;72.24;97247.88;5092359;28;19924;-57
2023/03/25 00:26:45;;;;;;;;;;;;;;;9.92;71.10;97233.56;5088822;28;20431;-57
2023/03/25 00:29:12;;;;;;;;;;;;;;;9.95;70.97;97235.63;5089822;28;19928;-57
2023/03/25 00:31:40;;;;;;;;;;;;;;;10.01;71.62;97233.53;5085867;28;19924;-57
2023/03/25 00:34:08;;;;;;;;;;;;;;;9.92;71.45;97228.13;5087275;28;19946;-58
2023/03/25 00:36:37;;;;;;;;;;;;;;;9.93;71.24;97230.53;5098941;28;19935;-57
2023/03/25 00:39:05;;;;;;;;;;;;;;;9.86;70.41;97227.50;5085168;28;19935;-57
2023/03/25 00:41:35;;;;;;;;;;;;;;;9.93;69.83;97222.38;5096779;28;20456;-57
2023/03/25 00:44:04;;;;;;;;;;;;;;;9.89;69.88;97223.34;5091274;28;19931;-57
2023/03/25 00:46:32;;;;;;;;;;;;;;;9.88;70.24;97219.03;5090145;28;20022;-58
2023/03/25 00:49:03;;;;;;;;;;;;;;;9.86;70.16;97213.94;5085506;28;19939;-57
2023/03/25 00:51:33;;;;;;;;;;;;;;;9.88;69.78;97203.56;5088368;28;19991;-57
2023/03/25 00:54:02;;;;;;;;;;;;;;;9.86;70.59;97213.94;5089129;28;19924;-57
2023/03/25 00:56:30;;;;;;;;;;;;;;;9.93;70.20;97211.53;5091925;28;19928;-57
2023/03/25 00:58:58;;;;;;;;;;;;;;;9.94;69.35;97223.97;5106455;28;19993;-57
2023/03/25 01:01:27;;;;;;;;;;;;;;;9.78;70.56;97227.53;5081940;28;19928;-57
2023/03/25 01:03:57;;;;;;;;;;;;;;;9.77;71.16;97226.72;5088181;28;19924;-58
2023/03/25 01:06:27;;;;;;;;;;;;;;;9.76;71.68;97249.56;5086349;28;19924;-58
2023/03/25 01:08:56;;;;;;;;;;;;;;;9.66;71.96;97237.13;5073600;28;19925;-58
2023/03/25 01:11:26;;;;;;;;;;;;;;;9.48;72.65;97211.16;5101985;28;20381;-57
2023/03/25 01:13:54;;;;;;;;;;;;;;;9.56;73.69;97187.84;5100938;28;19931;-57
2023/03/25 01:16:23;;;;;;;;;;;;;;;9.43;73.36;97205.91;5086062;28;19924;-57
2023/03/25 01:18:52;;;;;;;;;;;;;;;9.32;73.04;97205.44;5100674;28;19935;-57
2023/03/25 01:21:19;;;;;;;;;;;;;;;9.35;72.04;97206.69;5085567;28;20380;-57
2023/03/25 01:23:47;;;;;;;;;;;;;;;9.24;73.22;97197.28;5076382;28;19928;-57
2023/03/25 01:26:15;;;;;;;;;;;;;;;9.27;73.10;97208.31;5092142;28;19932;-59
2023/03/25 01:28:44;;;;;;;;;;;;;;;9.30;73.03;97206.84;5086424;28;20425;-57
2023/03/25 01:31:13;;;;;;;;;;;;;;;9.31;73.61;97213.84;5088716;28;19950;-57
2023/03/25 01:33:41;;;;;;;;;;;;;;;9.15;72.60;97208.13;5089013;28;19928;-57
2023/03/25 01:36:11;;;;;;;;;;;;;;;9.19;72.91;97209.09;5089364;28;20356;-57
2023/03/25 01:38:39;;;;;;;;;;;;;;;9.13;72.69;97213.06;5085022;28;19947;-59
2023/03/25 01:41:07;;;;;;;;;;;;;;;9.17;72.39;97214.03;5085673;28;19928;-57
2023/03/25 01:43:35;;;;;;;;;;;;;;;9.04;72.80;97223.09;5080892;28;19932;-57
2023/03/25 01:46:05;;;;;;;;;;;;;;;9.07;72.15;97203.50;5086667;28;20001;-57
2023/03/25 01:48:34;;;;;;;;;;;;;;;8.86;73.48;97204.13;5088663;28;19985;-57
2023/03/25 01:51:03;;;;;;;;;;;;;;;8.91;73.02;97193.16;5089725;28;20014;-58
2023/03/25 01:53:31;;;;;;;;;;;;;;;8.93;73.46;97188.19;5091722;28;20411;-57
2023/03/25 01:56:01;;;;;;;;;;;;;;;8.92;73.31;97196.66;5085405;28;20324;-57
2023/03/25 01:58:29;;;;;;;;;;;;;;;8.99;72.94;97188.03;5086816;28;19928;-58
2023/03/25 02:00:57;;;;;;;;;;;;;;;9.04;72.36;97191.38;5109205;27;19932;-57
2023/03/25 02:03:26;;;;;;;;;;;;;;;9.06;72.52;97185.66;5092321;28;19924;-57
2023/03/25 02:05:55;;;;;;;;;;;;;;;8.97;72.17;97179.44;5093115;28;19928;-57
2023/03/25 02:08:23;;;;;;;;;;;;;;;8.93;72.00;97182.78;5089727;28;19924;-57
2023/03/25 02:10:51;;;;;;;;;;;;;;;9.04;71.95;97187.88;5093844;28;19924;-57
2023/03/25 02:13:19;;;;;;;;;;;;;;;9.04;72.00;97185.16;5089362;28;19924;-57
2023/03/25 02:15:57;;;;;;;;;;;;;;;9.04;72.43;97182.47;5090113;28;20253;-57
2023/03/25 02:18:29;;;;;;;;;;;;;;;9.01;72.21;97188.53;5101809;28;20388;-58
2023/03/25 02:21:11;;;;;;;;;;;;;;;8.93;72.07;97192.81;5103465;28;19924;-57
2023/03/25 02:24:12;;;;;;;;;;;;;;;8.99;71.73;97190.75;5091250;28;19928;-57
2023/03/25 02:27:00;;;;;;;;;;;;;;;9.04;70.66;97193.28;5009295;28;19974;-58
2023/03/25 02:29:32;;;;;;;;;;;;;;;9.02;70.92;97195.53;5089533;28;19928;-58
2023/03/25 02:32:05;;;;;;;;;;;;;;;8.93;71.58;97190.09;5088464;28;20373;-57
2023/03/25 02:34:41;;;;;;;;;;;;;;;9.04;69.83;97193.28;5096046;28;20266;-57
2023/03/25 02:37:28;;;;;;;;;;;;;;;8.88;70.91;97198.38;5091772;28;19928;-57
2023/03/25 02:39:58;;;;;;;;;;;;;;;8.84;69.69;97195.53;5094309;28;19924;-57
2023/03/25 02:42:29;;;;;;;;;;;;;;;8.77;70.16;97195.19;5090053;28;20424;-57
2023/03/25 02:44:59;;;;;;;;;;;;;;;8.91;69.73;97190.44;5103859;28;20024;-57
2023/03/25 02:47:27;;;;;;;;;;;;;;;8.93;69.60;97207.16;5089657;28;19931;-60
2023/03/25 02:49:57;;;;;;;;;;;;;;;8.90;68.92;97210.50;5100355;28;19931;-57
2023/03/25 02:52:25;;;;;;;;;;;;;;;8.88;68.90;97204.59;5094281;28;19932;-60
2023/03/25 02:54:56;;;;;;;;;;;;;;;8.91;68.46;97211.31;5091617;28;19931;-57
2023/03/25 02:57:28;;;;;;;;;;;;;;;8.84;68.17;97205.53;5091024;28;19924;-57
2023/03/25 02:59:56;;;;;;;;;;;;;;;8.84;68.64;97206.38;5084665;28;19924;-57
2023/03/25 03:02:25;;;;;;;;;;;;;;;8.93;67.66;97209.88;5090655;28;19947;-57
2023/03/25 03:04:54;;;;;;;;;;;;;;;8.86;67.95;97209.56;5087982;28;20262;-57
2023/03/25 03:07:23;;;;;;;;;;;;;;;8.79;68.14;97198.41;5091908;28;19924;-57
2023/03/25 03:09:52;;;;;;;;;;;;;;;8.77;68.91;97203.31;5087002;28;20408;-60
2023/03/25 03:12:22;;;;;;;;;;;;;;;8.79;68.09;97194.88;5094741;28;20332;-57
2023/03/25 03:14:56;;;;;;;;;;;;;;;8.82;68.10;97199.66;5090849;28;20022;-57
2023/03/25 03:17:25;;;;;;;;;;;;;;;8.83;67.76;97199.34;5091173;28;20308;-57
2023/03/25 03:19:54;;;;;;;;;;;;;;;8.73;68.50;97193.44;5090850;28;19924;-64
2023/03/25 03:22:28;;;;;;;;;;;;;;;8.71;69.15;97201.88;5091417;28;19924;-57
2023/03/25 03:24:59;;;;;;;;;;;;;;;8.66;68.62;97196.59;5084548;28;19925;-57
2023/03/25 03:27:32;;;;;;;;;;;;;;;8.81;68.52;97204.28;5091153;28;19931;-57
2023/03/25 03:30:04;;;;;;;;;;;;;;;8.84;68.13;97200.94;5090898;28;20296;-57
2023/03/25 03:32:33;;;;;;;;;;;;;;;8.86;67.96;97198.72;5092430;28;19942;-57
2023/03/25 03:35:01;;;;;;;;;;;;;;;8.98;68.49;97194.56;5089628;28;19924;-57
2023/03/25 03:37:30;;;;;;;;;;;;;;;8.93;67.69;97201.72;5091627;28;19935;-57
2023/03/25 03:39:58;;;;;;;;;;;;;;;8.99;68.48;97196.16;5086676;28;19989;-57
2023/03/25 03:42:28;;;;;;;;;;;;;;;8.96;68.02;97199.53;5092431;28;19970;-57
2023/03/25 03:44:56;;;;;;;;;;;;;;;8.91;68.19;97203.97;5084112;28;19936;-57
2023/03/25 03:47:26;;;;;;;;;;;;;;;8.85;68.80;97205.25;5091723;28;19923;-57
2023/03/25 03:49:56;;;;;;;;;;;;;;;8.85;69.08;97201.75;5086110;28;20419;-57
2023/03/25 03:52:25;;;;;;;;;;;;;;;8.80;68.97;97210.81;5085971;28;19925;-57
2023/03/25 03:54:53;;;;;;;;;;;;;;;8.95;68.92;97195.19;5087103;28;19950;-57
2023/03/25 03:57:21;;;;;;;;;;;;;;;8.90;69.00;97196.97;5089101;28;19947;-60
2023/03/25 03:59:52;;;;;;;;;;;;;;;8.90;69.29;97199.69;5079989;28;19943;-57
2023/03/25 04:02:22;;;;;;;;;;;;;;;8.79;69.44;97195.69;5088248;28;19925;-57
2023/03/25 04:04:52;;;;;;;;;;;;;;;8.78;69.34;97188.66;5081348;28;19982;-57
2023/03/25 04:07:21;;;;;;;;;;;;;;;8.80;69.76;97191.88;5089194;28;19930;-58
2023/03/25 04:09:53;;;;;;;;;;;;;;;8.88;69.31;97196.47;5090515;28;19932;-57
2023/03/25 04:12:23;;;;;;;;;;;;;;;8.99;69.16;97198.88;5088533;28;20447;-58
2023/03/25 04:14:51;;;;;;;;;;;;;;;8.90;69.56;97205.09;5090314;28;19924;-57
2023/03/25 04:17:19;;;;;;;;;;;;;;;8.81;71.14;97223.25;5080471;28;19928;-57
2023/03/25 04:19:47;;;;;;;;;;;;;;;8.88;71.86;97233.59;5088260;28;19924;-57
2023/03/25 04:22:17;;;;;;;;;;;;;;;8.63;72.67;97227.03;5092502;28;19924;-57
2023/03/25 04:24:48;;;;;;;;;;;;;;;8.71;73.38;97237.09;5085972;28;20297;-56
2023/03/25 04:27:16;;;;;;;;;;;;;;;8.53;73.73;97240.88;5088193;28;19952;-58
2023/03/25 04:29:43;;;;;;;;;;;;;;;8.44;73.87;97230.00;5085113;28;19924;-57
2023/03/25 04:32:12;;;;;;;;;;;;;;;8.29;74.15;97227.69;5091458;28;19931;-57
2023/03/25 04:34:40;;;;;;;;;;;;;;;8.26;75.15;97225.63;5094401;28;19924;-57
2023/03/25 04:37:08;;;;;;;;;;;;;;;8.36;73.96;97226.16;5092535;28;20345;-57
2023/03/25 04:39:38;;;;;;;;;;;;;;;8.24;74.68;97220.50;5086550;28;19932;-57
2023/03/25 04:42:07;;;;;;;;;;;;;;;8.29;74.94;97239.31;5084023;28;19981;-57
2023/03/25 04:44:37;;;;;;;;;;;;;;;8.26;74.94;97234.53;5084785;28;20453;-57
2023/03/25 04:47:06;;;;;;;;;;;;;;;8.27;74.85;97217.19;5090451;28;19932;-57
2023/03/25 04:49:34;;;;;;;;;;;;;;;8.31;74.41;97225.44;5085286;28;20289;-56
2023/03/25 04:52:03;;;;;;;;;;;;;;;8.31;71.88;97220.88;5087701;28;20753;-57
2023/03/25 04:54:31;;;;;;;;;;;;;;;8.26;72.06;97217.50;5091739;28;19931;-57
2023/03/25 04:57:00;;;;;;;;;;;;;;;8.23;71.70;97218.91;5084105;28;19970;-57
2023/03/25 04:59:28;;;;;;;;;;;;;;;8.09;71.54;97220.91;5085745;28;19932;-57
2023/03/25 05:01:55;;;;;;;;;;;;;;;8.14;70.41;97231.59;5088772;28;19928;-57
2023/03/25 05:04:23;;;;;;;;;;;;;;;8.09;68.88;97231.72;5089157;28;19924;-57
2023/03/25 05:06:51;;;;;;;;;;;;;;;8.05;68.91;97231.56;5093759;28;19924;-57
2023/03/25 05:09:20;;;;;;;;;;;;;;;8.11;68.06;97240.34;5097027;28;20351;-57
2023/03/25 05:11:49;;;;;;;;;;;;;;;8.10;67.97;97236.84;5089689;28;19924;-57
2023/03/25 05:14:18;;;;;;;;;;;;;;;8.07;67.33;97247.50;5089090;28;19924;-57
2023/03/25 05:16:46;;;;;;;;;;;;;;;8.04;67.13;97248.09;5076723;28;19931;-57
2023/03/25 05:19:14;;;;;;;;;;;;;;;8.08;67.31;97254.50;5086846;28;19931;-57
2023/03/25 05:21:42;;;;;;;;;;;;;;;8.12;67.80;97263.59;5080964;28;20373;-59
2023/03/25 05:24:12;;;;;;;;;;;;;;;8.08;66.49;97262.59;5089182;28;19932;-57
2023/03/25 05:26:40;;;;;;;;;;;;;;;8.07;66.32;97279.94;5099550;28;19977;-57
2023/03/25 05:29:09;;;;;;;;;;;;;;;8.10;66.51;97276.63;5086887;28;19932;-57
2023/03/25 05:31:38;;;;;;;;;;;;;;;8.08;67.25;97276.13;5088469;28;20754;-58
2023/03/25 05:34:07;;;;;;;;;;;;;;;8.13;65.16;97270.59;5085370;28;20025;-58
2023/03/25 05:36:35;;;;;;;;;;;;;;;8.09;65.93;97291.25;5084975;28;19924;-57
2023/03/25 05:39:03;;;;;;;;;;;;;;;8.07;66.57;97280.75;5085274;28;19932;-57
2023/03/25 05:41:32;;;;;;;;;;;;;;;8.18;65.97;97291.31;5082724;28;19935;-58
2023/03/25 05:44:00;;;;;;;;;;;;;;;8.22;65.88;97284.97;5081123;28;20369;-57
2023/03/25 05:46:29;;;;;;;;;;;;;;;8.25;65.67;97286.25;5083814;28;19932;-58
2023/03/25 05:48:59;;;;;;;;;;;;;;;8.27;65.76;97294.88;5082729;28;19924;-59
2023/03/25 05:51:27;;;;;;;;;;;;;;;8.25;66.44;97305.97;5086820;28;19924;-57
2023/03/25 05:53:55;;;;;;;;;;;;;;;8.19;65.42;97315.34;5089498;28;19962;-57
2023/03/25 05:56:24;;;;;;;;;;;;;;;8.33;66.10;97316.06;5104811;27;19924;-57
2023/03/25 05:58:52;;;;;;;;;;;;;;;8.12;66.74;97315.00;5090029;28;19928;-58
2023/03/25 06:01:20;;;;;;;;;;;;;;;8.08;67.54;97317.50;5085227;28;19931;-57
2023/03/25 06:04:01;;;;;;;;;;;;;;;8.07;67.39;97328.66;5091902;28;19951;-57
2023/03/25 06:06:29;;;;;;;;;;;;;;;8.27;66.40;97332.75;5107345;27;19924;-57
2023/03/25 06:08:59;;;;;;;;;;;;;;;8.25;65.61;97319.50;5104485;28;19939;-57
2023/03/25 06:11:28;;;;;;;;;;;;;;;8.21;65.39;97326.66;5089554;28;19931;-57
2023/03/25 06:13:55;;;;;;;;;;;;;;;8.31;66.23;97325.59;5087638;28;20342;-57
2023/03/25 06:16:26;;;;;;;;;;;;;;;8.35;66.05;97330.06;5091913;28;19931;-56
2023/03/25 06:18:58;;;;;;;;;;;;;;;8.35;65.48;97334.69;5104303;27;19928;-59
2023/03/25 06:21:29;;;;;;;;;;;;;;;8.31;65.03;97321.00;5089087;28;19924;-60
2023/03/25 06:23:57;;;;;;;;;;;;;;;8.33;65.85;97332.31;5090493;28;20389;-58
2023/03/25 06:26:25;;;;;;;;;;;;;;;8.33;65.67;97335.00;5090817;28;19960;-57
2023/03/25 06:28:55;;;;;;;;;;;;;;;8.30;65.67;97329.41;5088995;28;20289;-57
2023/03/25 06:31:25;;;;;;;;;;;;;;;8.44;64.94;97329.38;5091945;28;19928;-59
2023/03/25 06:33:53;;;;;;;;;;;;;;;8.46;64.77;97329.84;5086842;28;20437;-57
2023/03/25 06:36:21;;;;;;;;;;;;;;;8.56;64.39;97319.53;5087978;28;19947;-59
2023/03/25 06:38:50;;;;;;;;;;;;;;;8.53;64.13;97322.09;5103421;27;19924;-58
2023/03/25 06:41:20;;;;;;;;;;;;;;;8.42;64.41;97310.72;5090423;28;19967;-57
2023/03/25 06:43:58;;;;;;;;;;;;;;;8.48;64.06;97322.22;5084861;28;19924;-56
2023/03/25 06:46:44;;;;;;;;;;;;;;;8.44;64.40;97319.34;5089862;28;20416;-57
2023/03/25 06:49:12;;;;;;;;;;;;;;;8.65;63.93;97317.66;5092407;28;19924;-57
2023/03/25 06:51:39;;;;;;;;;;;;;;;8.65;62.61;97325.00;5089283;28;19931;-57
2023/03/25 06:54:11;;;;;;;;;;;;;;;8.56;62.98;97321.44;5087691;28;19924;-57
2023/03/25 06:56:38;;;;;;;;;;;;;;;8.62;62.41;97317.47;5087022;28;20372;-58
2023/03/25 06:59:07;;;;;;;;;;;;;;;8.67;63.09;97325.47;5102753;27;19928;-57
2023/03/25 07:01:35;;;;;;;;;;;;;;;8.83;63.33;97321.22;5084017;28;19924;-57
2023/03/25 07:04:03;;;;;;;;;;;;;;;8.80;61.85;97321.88;5089193;28;20159;-57
2023/03/25 07:06:31;;;;;;;;;;;;;;;8.89;61.93;97317.28;5088372;28;19924;-57
2023/03/25 07:09:01;;;;;;;;;;;;;;;8.94;61.88;97316.31;5092304;28;20339;-57
2023/03/25 07:11:30;;;;;;;;;;;;;;;8.97;61.53;97317.59;5092209;28;20369;-57
2023/03/25 07:13:58;;;;;;;;;;;;;;;8.97;61.02;97312.19;5090181;28;19981;-57
2023/03/25 07:16:26;;;;;;;;;;;;;;;9.04;60.76;97326.84;5083963;28;19939;-57
2023/03/25 07:18:56;;;;;;;;;;;;;;;8.98;60.68;97327.31;5086824;28;20471;-58
2023/03/25 07:21:23;;;;;;;;;;;;;;;8.99;60.85;97320.78;5104963;27;19985;-57
2023/03/25 07:23:51;;;;;;;;;;;;;;;9.06;61.01;97326.56;5086010;28;19924;-60
2023/03/25 07:26:19;;;;;;;;;;;;;;;9.17;60.94;97328.66;5087091;28;19924;-57
2023/03/25 07:28:48;;;;;;;;;;;;;;;9.23;60.59;97314.97;5094800;28;20696;-58
2023/03/25 07:31:17;;;;;;;;;;;;;;;9.34;61.43;97325.16;5089824;28;19932;-57
2023/03/25 07:33:44;;;;;;;;;;;;;;;9.39;60.76;97329.66;5091734;28;19969;-58
2023/03/25 07:36:12;;;;;;;;;;;;;;;9.29;60.35;97325.31;5090314;28;19924;-59
2023/03/25 07:38:40;;;;;;;;;;;;;;;9.35;59.99;97337.59;5089656;28;20007;-57
2023/03/25 07:41:09;;;;;;;;;;;;;;;9.30;61.02;97337.75;5094500;28;19935;-57
2023/03/25 07:43:38;;;;;;;;;;;;;;;9.33;60.56;97339.06;5087109;28;19935;-57
2023/03/25 07:46:29;;;;;;;;;;;;;;;9.40;59.31;97342.88;5087111;28;20460;-58
2023/03/25 07:48:57;;;;;;;;;;;;;;;9.50;60.89;97347.19;5083060;28;19928;-59
2023/03/25 07:51:25;;;;;;;;;;;;;;;9.46;60.54;97348.94;5090508;28;19932;-57
2023/03/25 07:53:52;;;;;;;;;;;;;;;9.50;61.21;97351.81;5089143;28;19932;-58
2023/03/25 07:56:20;;;;;;;;;;;;;;;9.60;60.31;97355.03;5087259;28;20289;-56
2023/03/25 07:58:48;;;;;;;;;;;;;;;9.77;59.76;97346.09;5079545;28;19938;-58
2023/03/25 08:01:16;;;;;;;;;;;;;;;9.74;59.85;97352.13;5085896;28;19960;-57
2023/03/25 08:03:45;;;;;;;;;;;;;;;9.72;60.21;97343.53;5086873;28;20278;-57
2023/03/25 08:06:13;;;;;;;;;;;;;;;9.67;60.12;97354.53;5103040;28;19924;-57
2023/03/25 08:08:41;;;;;;;;;;;;;;;9.63;59.97;97345.44;5081778;28;19924;-57
2023/03/25 08:11:10;;;;;;;;;;;;;;;9.74;59.66;97341.28;5081149;28;20373;-57
2023/03/25 08:13:38;;;;;;;;;;;;;;;10.09;59.87;97341.28;5086282;28;19924;-57
2023/03/25 08:16:09;;;;;;;;;;;;;;;10.42;58.88;97336.13;5078850;28;19924;-58
2023/03/25 08:18:37;;;;;;;;;;;;;;;10.37;58.06;97342.50;5085577;28;19973;-57
2023/03/25 08:21:08;;;;;;;;;;;;;;;10.29;57.45;97351.50;5088712;28;19928;-57
2023/03/25 08:23:36;;;;;;;;;;;;;;;10.19;57.46;97338.22;5087729;28;19924;-57
2023/03/25 08:26:06;;;;;;;;;;;;;;;10.04;57.25;97346.88;5090415;28;20380;-57
2023/03/25 08:28:35;;;;;;;;;;;;;;;9.87;57.72;97343.06;5088908;28;19981;-56
2023/03/25 08:31:05;;;;;;;;;;;;;;;9.88;57.60;97354.69;5090690;28;19961;-57
2023/03/25 08:33:38;;;;;;;;;;;;;;;9.77;57.57;97356.16;5083599;28;20306;-57
2023/03/25 08:36:12;;;;;;;;;;;;;;;9.83;57.36;97339.38;5081242;28;19932;-57
2023/03/25 08:38:40;;;;;;;;;;;;;;;9.94;56.11;97339.84;5076909;28;19956;-58
2023/03/25 08:41:08;;;;;;;;;;;;;;;10.20;55.48;97342.53;5086088;28;19935;-56
2023/03/25 08:43:36;;;;;;;;;;;;;;;10.58;54.89;97347.25;5075251;28;19932;-60
2023/03/25 08:46:04;;;;;;;;;;;;;;;10.68;55.39;97349.63;5080017;28;19928;-57
2023/03/25 08:48:32;;;;;;;;;;;;;;;10.49;53.92;97339.13;5077250;28;20027;-58
2023/03/25 08:51:01;;;;;;;;;;;;;;;10.44;54.53;97347.47;5082699;28;20032;-59
2023/03/25 08:53:30;;;;;;;;;;;;;;;10.40;53.85;97341.88;5091741;28;19932;-58
2023/03/25 08:55:58;;;;;;;;;;;;;;;10.43;54.89;97341.22;5088965;28;19924;-57
2023/03/25 08:58:26;;;;;;;;;;;;;;;10.63;54.85;97339.72;5087138;28;20381;-57
2023/03/25 09:00:54;;;;;;;;;;;;;;;10.75;53.52;97333.59;5096308;28;19931;-57
2023/03/25 09:03:22;;;;;;;;;;;;;;;10.74;53.78;97323.84;5091948;28;19931;-57
2023/03/25 09:05:50;;;;;;;;;;;;;;;10.77;53.36;97320.50;5089011;28;19924;-57
2023/03/25 09:08:18;;;;;;;;;;;;;;;11.11;52.84;97332.31;5101578;28;19998;-58
2023/03/25 09:10:48;;;;;;;;;;;;;;;11.14;52.40;97315.34;5102939;28;20245;-57
2023/03/25 09:13:16;;;;;;;;;;;;;;;11.35;50.96;97301.78;5086569;28;19931;-59
2023/03/25 09:15:45;;;;;;;;;;;;;;;11.57;49.85;97315.06;5089777;28;19925;-57
2023/03/25 09:18:13;;;;;;;;;;;;;;;11.86;49.27;97308.75;5086002;28;19924;-56
2023/03/25 09:20:41;;;;;;;;;;;;;;;11.71;49.42;97307.41;5084923;28;19924;-58
2023/03/25 09:23:09;;;;;;;;;;;;;;;11.80;49.35;97310.06;5087609;28;19927;-57
2023/03/25 09:25:37;;;;;;;;;;;;;;;11.71;49.07;97293.00;5083383;28;19971;-57
2023/03/25 09:28:06;;;;;;;;;;;;;;;11.69;49.68;97309.66;5088781;28;19924;-57
2023/03/25 09:30:34;;;;;;;;;;;;;;;11.64;50.26;97303.63;5097013;28;19928;-57
2023/03/25 09:33:03;;;;;;;;;;;;;;;11.48;50.65;97303.44;5092365;28;19951;-57
2023/03/25 09:35:31;;;;;;;;;;;;;;;11.43;50.67;97317.22;5094179;28;19931;-58
2023/03/25 09:37:59;;;;;;;;;;;;;;;11.40;49.64;97318.69;5089211;28;19935;-56
2023/03/25 09:40:27;;;;;;;;;;;;;;;11.55;49.48;97309.91;5092816;28;19928;-61
2023/03/25 09:43:03;;;;;;;;;;;;;;;11.54;49.40;97293.94;5098565;27;19931;-57
2023/03/25 09:45:34;;;;;;;;;;;;;;;11.67;49.86;97300.25;5089243;28;19924;-58
2023/03/25 09:48:03;;;;;;;;;;;;;;;11.41;49.29;97317.56;5092070;28;19931;-56
2023/03/25 09:50:32;;;;;;;;;;;;;;;11.57;49.25;97312.34;5091589;28;19925;-57
2023/03/25 09:53:00;;;;;;;;;;;;;;;11.61;49.14;97316.00;5092189;28;19972;-59
2023/03/25 09:55:29;;;;;;;;;;;;;;;11.63;49.45;97308.28;5084777;28;20395;-57
2023/03/25 09:57:59;;;;;;;;;;;;;;;11.76;48.84;97303.69;5089953;28;20399;-57
2023/03/25 10:00:27;;;;;;;;;;;;;;;11.66;48.51;97302.16;5089280;28;19928;-59
2023/03/25 10:02:59;;;;;;;;;;;;;;;11.76;48.47;97293.59;5093784;28;19924;-57
2023/03/25 10:05:35;;;;;;;;;;;;;;;11.91;47.35;97289.47;5094762;28;20015;-57
2023/03/25 10:08:06;;;;;;;;;;;;;;;12.07;47.79;97285.00;5092383;28;20282;-58
2023/03/25 10:10:35;;;;;;;;;;;;;;;12.17;47.31;97286.50;5089359;28;19965;-57
2023/03/25 10:13:07;;;;;;;;;;;;;;;12.29;47.64;97293.91;5091388;28;20012;-57
2023/03/25 10:15:36;;;;;;;;;;;;;;;12.11;47.18;97290.56;5087456;28;19957;-57
2023/03/25 10:18:08;;;;;;;;;;;;;;;11.95;48.13;97293.13;5087408;28;20072;-57
2023/03/25 10:20:40;;;;;;;;;;;;;;;12.05;47.47;97287.28;5079446;28;20425;-57
2023/03/25 10:23:10;;;;;;;;;;;;;;;11.87;48.02;97277.66;5092040;28;20291;-56
2023/03/25 10:25:40;;;;;;;;;;;;;;;11.86;48.59;97272.56;5077889;28;19977;-57
2023/03/25 10:28:10;;;;;;;;;;;;;;;11.84;49.25;97277.56;5087737;28;19938;-57
2023/03/25 10:30:40;;;;;;;;;;;;;;;11.74;48.74;97278.75;5092637;28;19946;-57
2023/03/25 10:33:12;;;;;;;;;;;;;;;11.67;49.02;97267.59;5087279;28;19950;-56
2023/03/25 10:35:42;;;;;;;;;;;;;;;11.70;49.53;97272.38;5093493;28;20013;-57
2023/03/25 10:38:12;;;;;;;;;;;;;;;11.57;50.11;97274.25;5089003;28;19962;-57
2023/03/25 10:40:43;;;;;;;;;;;;;;;11.39;50.31;97272.78;5097440;28;19928;-57
2023/03/25 10:43:13;;;;;;;;;;;;;;;11.15;51.23;97268.00;5085582;28;19928;-57
2023/03/25 10:45:41;;;;;;;;;;;;;;;11.01;52.85;97268.25;5093879;28;19924;-61
2023/03/25 10:48:11;;;;;;;;;;;;;;;10.95;53.20;97264.94;5088559;28;19928;-57
2023/03/25 10:50:40;;;;;;;;;;;;;;;11.04;52.61;97255.94;5085771;28;19928;-57
2023/03/25 10:53:09;;;;;;;;;;;;;;;10.90;52.40;97265.13;5093046;28;19932;-57
2023/03/25 10:55:40;;;;;;;;;;;;;;;10.89;52.82;97255.38;5090939;28;20005;-56
2023/03/25 10:58:10;;;;;;;;;;;;;;;10.75;52.72;97252.09;5103237;28;19924;-59
2023/03/25 11:00:39;;;;;;;;;;;;;;;10.91;53.44;97247.69;5093095;28;19936;-58
2023/03/25 11:03:09;;;;;;;;;;;;;;;11.12;52.67;97242.25;5091468;28;19928;-57
2023/03/25 11:05:40;;;;;;;;;;;;;;;11.17;52.40;97235.84;5084659;28;19936;-58
2023/03/25 11:08:08;;;;;;;;;;;;;;;11.13;54.22;97249.31;5088120;28;20043;-56
2023/03/25 11:10:55;;;;;;;;;;;;;;;10.78;58.58;97253.38;5087106;28;20639;-59
2023/03/25 11:13:24;;;;;;;;;;;;;;;10.39;59.71;97280.56;5089358;28;19931;-58
2023/03/25 11:15:52;;;;;;;;;;;;;;;10.07;62.10;97291.97;5089757;28;19924;-61
2023/03/25 11:18:21;;;;;;;;;;;;;;;9.65;64.36;97305.25;5087836;28;19945;-59
2023/03/25 11:20:53;;;;;;;;;;;;;;;9.26;66.02;97331.38;5088798;28;19924;-58
2023/03/25 11:23:22;;;;;;;;;;;;;;;9.04;69.41;97366.72;5085205;28;19924;-58
2023/03/25 11:25:50;;;;;;;;;;;;;;;8.56;71.27;97351.22;5095725;28;19947;-58
2023/03/25 11:28:20;;;;;;;;;;;;;;;8.30;71.80;97322.09;5089321;28;19928;-58
2023/03/25 11:31:11;;;;;;;;;;;;;;;8.19;71.86;97323.47;5097052;28;19935;-58
2023/03/25 11:33:40;;;;;;;;;;;;;;;8.29;71.52;97319.69;5086017;28;19935;-59
2023/03/25 11:36:26;;;;;;;;;;;;;;;8.88;70.83;97312.16;5087312;28;19928;-58
2023/03/25 11:38:59;;;;;;;;;;;;;;;8.95;69.40;97303.56;5086119;28;19924;-58
2023/03/25 11:41:28;;;;;;;;;;;;;;;9.47;69.14;97309.06;5090298;28;19932;-59
2023/03/25 11:43:55;;;;;;;;;;;;;;;9.81;67.26;97297.41;5086384;28;19927;-59
2023/03/25 11:46:24;;;;;;;;;;;;;;;10.16;66.21;97290.00;5088862;28;19969;-58
2023/03/25 11:48:52;;;;;;;;;;;;;;;10.48;65.52;97267.72;5089757;28;20373;-56
2023/03/25 11:51:20;;;;;;;;;;;;;;;10.75;66.66;97258.31;5090500;28;19931;-63
2023/03/25 11:53:50;;;;;;;;;;;;;;;10.82;64.85;97248.88;5085618;28;19967;-56
2023/03/25 11:56:21;;;;;;;;;;;;;;;10.94;65.96;97251.66;5086404;28;20385;-56
2023/03/25 11:58:49;;;;;;;;;;;;;;;11.31;65.01;97260.84;5088408;28;19939;-56
2023/03/25 12:01:20;;;;;;;;;;;;;;;11.44;62.82;97259.78;5089361;28;19931;-56
2023/03/25 12:03:48;;;;;;;;;;;;;;;11.44;62.59;97253.53;5081114;28;20143;-60
2023/03/25 12:06:17;;;;;;;;;;;;;;;11.43;62.79;97241.88;5082363;28;19930;-57
2023/03/25 12:08:48;;;;;;;;;;;;;;;11.67;63.36;97251.28;5083823;28;19946;-57
2023/03/25 12:11:16;;;;;;;;;;;;;;;11.91;61.29;97245.13;5089767;28;19924;-57
2023/03/25 12:13:49;;;;;;;;;;;;;;;11.85;61.07;97252.72;5087794;28;19966;-56
2023/03/25 12:16:20;;;;;;;;;;;;;;;11.88;60.72;97238.47;5088746;28;19967;-56
2023/03/25 12:18:50;;;;;;;;;;;;;;;11.82;60.81;97234.34;5089863;28;19924;-56
2023/03/25 12:21:22;;;;;;;;;;;;;;;11.95;57.76;97241.41;5090548;28;19942;-57
2023/03/25 12:23:53;;;;;;;;;;;;;;;11.66;59.01;97220.53;5089204;28;19924;-64
2023/03/25 12:26:25;;;;;;;;;;;;;;;11.83;58.50;97222.34;5087163;28;19970;-57
2023/03/25 12:29:00;;;;;;;;;;;;;;;12.27;59.16;97215.25;5087284;28;19931;-57
2023/03/25 12:31:31;;;;;;;;;;;;;;;12.55;58.01;97198.25;5086604;28;19939;-57
2023/03/25 12:34:03;;;;;;;;;;;;;;;12.72;56.34;97205.38;5088673;28;19935;-56
2023/03/25 12:36:39;;;;;;;;;;;;;;;12.53;56.27;97209.50;5096729;28;19924;-57
2023/03/25 12:39:11;;;;;;;;;;;;;;;12.35;55.52;97208.09;5089349;28;19924;-57
2023/03/25 12:41:39;;;;;;;;;;;;;;;12.20;55.70;97187.03;5088433;28;19932;-57
2023/03/25 12:44:10;;;;;;;;;;;;;;;12.44;56.54;97188.94;5092355;28;19936;-63
2023/03/25 12:46:53;;;;;;;;;;;;;;;12.53;55.88;97198.59;5092764;28;19934;-66
2023/03/25 12:49:28;;;;;;;;;;;;;;;12.63;54.20;97213.69;5090373;28;19931;-59
2023/03/25 12:51:58;;;;;;;;;;;;;;;12.41;54.11;97204.06;5087600;28;20300;-63
2023/03/25 12:54:32;;;;;;;;;;;;;;;12.36;55.11;97201.56;5092026;28;19924;-57
2023/03/25 12:57:02;;;;;;;;;;;;;;;12.29;55.52;97198.56;5086214;28;19928;-57
2023/03/25 12:59:45;;;;;;;;;;;;;;;12.07;55.44;97189.72;5089132;28;20426;-57
2023/03/25 13:02:24;;;;;;;;;;;;;;;12.04;56.15;97195.06;5084616;28;19932;-57
2023/03/25 13:05:03;;;;;;;;;;;;;;;12.06;54.64;97190.06;5093982;28;20014;-57
2023/03/25 13:07:32;;;;;;;;;;;;;;;12.08;56.16;97195.94;5083169;28;20003;-58